createdAt,value
2022-08-03T00:00:14.848Z,18.29
2022-08-03T00:01:14.937Z,18.28
2022-08-03T00:02:15.101Z,18.27
2022-08-03T00:03:14.900Z,18.28
2022-08-03T00:04:14.822Z,18.27
2022-08-03T00:05:14.835Z,18.25
2022-08-03T00:06:15.003Z,18.25
2022-08-03T00:07:14.785Z,18.25
2022-08-03T00:08:14.847Z,18.24
2022-08-03T00:09:14.782Z,18.24
2022-08-03T00:10:14.785Z,18.22
2022-08-03T00:11:14.749Z,18.22
2022-08-03T00:12:15.092Z,18.21
2022-08-03T00:13:14.724Z,18.24
2022-08-03T00:14:14.709Z,18.24
2022-08-03T00:15:16.656Z,18.22
2022-08-03T00:16:14.722Z,18.22
2022-08-03T00:17:14.671Z,18.21
2022-08-03T00:18:14.684Z,18.21
2022-08-03T00:19:14.725Z,18.19
2022-08-03T00:20:14.646Z,18.18
2022-08-03T00:21:14.794Z,18.18
2022-08-03T00:22:15.048Z,18.18
2022-08-03T00:23:14.741Z,18.18
2022-08-03T00:24:14.663Z,18.15
2022-08-03T00:25:14.630Z,18.17
2022-08-03T00:26:14.646Z,18.12
2022-08-03T00:27:16.717Z,18.10
2022-08-03T00:28:14.614Z,18.10
2022-08-03T00:29:14.728Z,18.10
2022-08-03T00:30:14.565Z,18.09
2022-08-03T00:31:14.554Z,18.09
2022-08-03T00:32:14.771Z,18.09
2022-08-03T00:33:14.645Z,18.09
2022-08-03T00:34:15.055Z,18.07
2022-08-03T00:35:37.093Z,18.07
2022-08-03T00:36:14.506Z,18.06
2022-08-03T00:37:14.488Z,18.06
2022-08-03T00:38:14.569Z,18.04
2022-08-03T00:39:14.479Z,18.06
2022-08-03T00:40:14.529Z,18.03
2022-08-03T00:41:15.683Z,18.03
2022-08-03T00:42:14.866Z,18.02
2022-08-03T00:43:14.498Z,18.02
2022-08-03T00:44:15.274Z,18.02
2022-08-03T00:45:14.737Z,18.00
2022-08-03T00:46:19.043Z,18.00
2022-08-03T00:47:14.401Z,18.00
2022-08-03T00:48:29.542Z,18.02
2022-08-03T00:49:14.413Z,18.00
2022-08-03T00:50:14.633Z,18.00
2022-08-03T00:51:14.342Z,18.00
2022-08-03T00:52:14.551Z,18.00
2022-08-03T00:53:14.337Z,18.02
2022-08-03T00:54:14.487Z,18.00
2022-08-03T00:55:14.498Z,18.02
2022-08-03T00:56:14.301Z,18.03
2022-08-03T00:57:14.287Z,18.02
2022-08-03T00:58:14.602Z,18.02
2022-08-03T00:59:14.279Z,18.03
2022-08-03T01:00:14.336Z,18.02
2022-08-03T01:01:14.365Z,18.02
2022-08-03T01:02:14.676Z,18.02
2022-08-03T01:03:14.326Z,18.02
2022-08-03T01:04:14.383Z,18.02
2022-08-03T01:05:14.368Z,18.02
2022-08-03T01:06:14.218Z,18.02
2022-08-03T01:07:14.248Z,18.02
2022-08-03T01:08:14.363Z,18.02
2022-08-03T01:09:14.533Z,18.02
2022-08-03T01:10:14.205Z,18.02
2022-08-03T01:11:14.161Z,18.00
2022-08-03T01:12:14.543Z,18.00
2022-08-03T01:14:01.433Z,17.99
2022-08-03T01:14:23.053Z,17.99
2022-08-03T01:15:14.108Z,18.00
2022-08-03T01:16:14.156Z,18.00
2022-08-03T01:17:14.891Z,18.00
2022-08-03T01:18:14.061Z,18.00
2022-08-03T01:19:14.212Z,18.02
2022-08-03T01:20:14.058Z,18.02
2022-08-03T01:21:14.470Z,18.00
2022-08-03T01:22:14.471Z,18.00
2022-08-03T01:23:14.018Z,18.00
2022-08-03T01:24:14.028Z,18.00
2022-08-03T01:25:14.141Z,17.97
2022-08-03T01:26:14.216Z,18.00
2022-08-03T01:27:14.189Z,18.00
2022-08-03T01:28:14.036Z,18.00
2022-08-03T01:29:14.182Z,17.99
2022-08-03T01:30:14.292Z,17.95
2022-08-03T01:31:14.005Z,17.97
2022-08-03T01:32:58.848Z,17.97
2022-08-03T01:33:14.350Z,17.95
2022-08-03T01:34:14.656Z,17.97
2022-08-03T01:35:14.049Z,17.95
2022-08-03T01:36:14.088Z,17.94
2022-08-03T01:37:14.091Z,17.95
2022-08-03T01:38:13.890Z,17.95
2022-08-03T01:39:13.894Z,17.95
2022-08-03T01:40:14.097Z,17.95
2022-08-03T01:41:13.869Z,17.95
2022-08-03T01:42:14.201Z,17.94
2022-08-03T01:43:13.860Z,17.92
2022-08-03T01:44:29.603Z,17.89
2022-08-03T01:45:13.929Z,17.88
2022-08-03T01:46:14.031Z,17.87
2022-08-03T01:47:13.884Z,17.85
2022-08-03T01:48:13.788Z,17.84
2022-08-03T01:49:13.839Z,17.82
2022-08-03T01:50:13.789Z,17.82
2022-08-03T01:51:13.741Z,17.81
2022-08-03T01:52:13.832Z,17.81
2022-08-03T01:53:13.726Z,17.81
2022-08-03T01:54:13.937Z,17.79
2022-08-03T01:55:13.816Z,17.78
2022-08-03T01:56:13.686Z,17.79
2022-08-03T01:57:13.683Z,17.79
2022-08-03T01:58:13.822Z,17.78
2022-08-03T01:59:13.839Z,17.79
2022-08-03T02:00:13.660Z,17.78
2022-08-03T02:01:13.953Z,17.78
2022-08-03T02:02:28.277Z,17.78
2022-08-03T02:03:13.762Z,17.76
2022-08-03T02:04:13.651Z,17.76
2022-08-03T02:05:13.621Z,17.76
2022-08-03T02:07:02.775Z,17.76
2022-08-03T02:07:13.633Z,17.74
2022-08-03T02:08:13.950Z,17.73
2022-08-03T02:09:13.624Z,17.76
2022-08-03T02:10:13.680Z,17.74
2022-08-03T02:11:13.583Z,17.73
2022-08-03T02:12:14.114Z,17.71
2022-08-03T02:13:14.181Z,17.71
2022-08-03T02:14:13.516Z,17.71
2022-08-03T02:15:13.622Z,17.70
2022-08-03T02:16:13.622Z,17.69
2022-08-03T02:17:13.494Z,17.69
2022-08-03T02:18:13.488Z,17.69
2022-08-03T02:19:13.627Z,17.67
2022-08-03T02:20:13.496Z,17.66
2022-08-03T02:21:55.675Z,17.66
2022-08-03T02:22:13.682Z,17.66
2022-08-03T02:23:13.507Z,17.66
2022-08-03T02:24:13.502Z,17.63
2022-08-03T02:25:13.404Z,17.64
2022-08-03T02:26:13.430Z,17.63
2022-08-03T02:27:13.433Z,17.63
2022-08-03T02:28:13.404Z,17.62
2022-08-03T02:29:13.515Z,17.63
2022-08-03T02:30:13.346Z,17.59
2022-08-03T02:31:13.394Z,17.59
2022-08-03T02:32:13.771Z,17.57
2022-08-03T02:33:13.308Z,17.59
2022-08-03T02:34:13.395Z,17.57
2022-08-03T02:35:13.345Z,17.55
2022-08-03T02:36:13.315Z,17.54
2022-08-03T02:37:13.323Z,17.53
2022-08-03T02:38:13.292Z,17.53
2022-08-03T02:39:13.282Z,17.53
2022-08-03T02:40:13.328Z,17.50
2022-08-03T02:41:13.257Z,17.50
2022-08-03T02:42:13.314Z,17.50
2022-08-03T02:43:13.219Z,17.47
2022-08-03T02:44:13.318Z,17.47
2022-08-03T02:45:13.190Z,17.47
2022-08-03T02:46:13.199Z,17.46
2022-08-03T02:47:13.323Z,17.46
2022-08-03T02:48:13.187Z,17.46
2022-08-03T02:49:42.153Z,17.48
2022-08-03T02:50:13.414Z,17.46
2022-08-03T02:51:13.141Z,17.47
2022-08-03T02:52:13.470Z,17.46
2022-08-03T02:53:13.476Z,17.47
2022-08-03T02:54:13.123Z,17.47
2022-08-03T02:55:13.310Z,17.46
2022-08-03T02:56:13.285Z,17.47
2022-08-03T02:57:13.088Z,17.47
2022-08-03T02:58:13.129Z,17.48
2022-08-03T02:59:13.077Z,17.47
2022-08-03T03:00:13.194Z,17.47
2022-08-03T03:01:13.101Z,17.46
2022-08-03T03:02:13.285Z,17.46
2022-08-03T03:03:13.014Z,17.44
2022-08-03T03:04:13.006Z,17.44
2022-08-03T03:05:54.803Z,17.40
2022-08-03T03:06:12.999Z,17.38
2022-08-03T03:07:12.978Z,17.36
2022-08-03T03:08:18.726Z,17.36
2022-08-03T03:09:12.945Z,17.35
2022-08-03T03:10:13.000Z,17.33
2022-08-03T03:11:13.159Z,17.33
2022-08-03T03:12:13.193Z,17.33
2022-08-03T03:13:12.917Z,17.33
2022-08-03T03:14:12.940Z,17.35
2022-08-03T03:15:12.939Z,17.33
2022-08-03T03:16:12.938Z,17.35
2022-08-03T03:17:12.937Z,17.33
2022-08-03T03:18:12.911Z,17.33
2022-08-03T03:19:12.925Z,17.35
2022-08-03T03:20:12.860Z,17.33
2022-08-03T03:21:12.919Z,17.35
2022-08-03T03:22:13.120Z,17.35
2022-08-03T03:23:12.839Z,17.36
2022-08-03T03:24:12.925Z,17.36
2022-08-03T03:25:12.798Z,17.35
2022-08-03T03:26:12.970Z,17.33
2022-08-03T03:27:16.653Z,17.35
2022-08-03T03:28:13.071Z,17.33
2022-08-03T03:29:12.767Z,17.32
2022-08-03T03:30:12.927Z,17.30
2022-08-03T03:31:12.867Z,17.29
2022-08-03T03:32:13.048Z,17.28
2022-08-03T03:33:12.720Z,17.26
2022-08-03T03:34:12.986Z,17.25
2022-08-03T03:35:12.701Z,17.25
2022-08-03T03:36:12.683Z,17.20
2022-08-03T03:37:12.699Z,17.18
2022-08-03T03:38:12.682Z,17.18
2022-08-03T03:39:15.566Z,17.15
2022-08-03T03:40:12.701Z,17.17
2022-08-03T03:41:12.649Z,17.17
2022-08-03T03:42:12.853Z,17.14
2022-08-03T03:43:12.632Z,17.15
2022-08-03T03:44:12.645Z,17.13
2022-08-03T03:45:12.729Z,17.13
2022-08-03T03:46:12.656Z,17.10
2022-08-03T03:47:12.907Z,17.08
2022-08-03T03:48:12.544Z,17.08
2022-08-03T03:49:12.599Z,17.07
2022-08-03T03:50:12.568Z,17.06
2022-08-03T03:51:12.573Z,17.06
2022-08-03T03:52:13.000Z,17.06
2022-08-03T03:53:12.541Z,17.04
2022-08-03T03:54:12.505Z,17.06
2022-08-03T03:55:12.907Z,17.06
2022-08-03T03:56:12.909Z,17.04
2022-08-03T03:57:12.909Z,17.04
2022-08-03T03:58:12.614Z,17.04
2022-08-03T03:59:12.537Z,17.04
2022-08-03T04:00:12.501Z,17.04
2022-08-03T04:01:12.673Z,17.06
2022-08-03T04:02:12.448Z,17.06
2022-08-03T04:03:12.551Z,17.07
2022-08-03T04:04:12.576Z,17.07
2022-08-03T04:05:12.387Z,17.07
2022-08-03T04:06:12.418Z,17.07
2022-08-03T04:07:12.441Z,17.08
2022-08-03T04:08:13.377Z,17.10
2022-08-03T04:09:12.470Z,17.08
2022-08-03T04:10:14.738Z,17.08
2022-08-03T04:11:12.473Z,17.11
2022-08-03T04:12:12.774Z,17.11
2022-08-03T04:13:12.325Z,17.13
2022-08-03T04:14:12.320Z,17.15
2022-08-03T04:15:12.303Z,17.15
2022-08-03T04:16:12.451Z,17.17
2022-08-03T04:17:12.258Z,17.18
2022-08-03T04:18:12.261Z,17.20
2022-08-03T04:19:12.279Z,17.23
2022-08-03T04:20:12.297Z,17.26
2022-08-03T04:21:12.424Z,17.26
2022-08-03T04:22:12.429Z,17.29
2022-08-03T04:23:15.482Z,17.28
2022-08-03T04:24:12.205Z,17.30
2022-08-03T04:25:12.198Z,17.32
2022-08-03T04:26:12.198Z,17.36
2022-08-03T04:27:12.279Z,17.40
2022-08-03T04:28:30.062Z,17.43
2022-08-03T04:29:12.213Z,17.47
2022-08-03T04:30:12.391Z,17.47
2022-08-03T04:31:12.174Z,17.50
2022-08-03T04:32:12.192Z,17.50
2022-08-03T04:33:12.144Z,17.50
2022-08-03T04:34:12.188Z,17.51
2022-08-03T04:35:12.154Z,17.51
2022-08-03T04:36:12.090Z,17.51
2022-08-03T04:37:12.071Z,17.54
2022-08-03T04:38:12.191Z,17.54
2022-08-03T04:39:12.068Z,17.59
2022-08-03T04:40:12.468Z,17.62
2022-08-03T04:41:12.057Z,17.63
2022-08-03T04:42:12.076Z,17.66
2022-08-03T04:43:12.138Z,17.66
2022-08-03T04:44:12.761Z,17.67
2022-08-03T04:45:12.072Z,17.69
2022-08-03T04:46:12.245Z,17.69
2022-08-03T04:47:12.187Z,17.69
2022-08-03T04:48:12.056Z,17.69
2022-08-03T04:49:12.062Z,17.71
2022-08-03T04:50:13.513Z,17.73
2022-08-03T04:51:11.961Z,17.74
2022-08-03T04:52:12.069Z,17.74
2022-08-03T04:53:11.923Z,17.76
2022-08-03T04:54:11.962Z,17.78
2022-08-03T04:55:11.909Z,17.81
2022-08-03T04:56:12.037Z,17.84
2022-08-03T04:57:22.264Z,17.89
2022-08-03T04:58:11.960Z,17.99
2022-08-03T04:59:11.905Z,18.07
2022-08-03T05:00:11.962Z,18.21
2022-08-03T05:01:11.989Z,18.27
2022-08-03T05:02:12.056Z,18.33
2022-08-03T05:03:20.327Z,18.39
2022-08-03T05:04:11.961Z,18.47
2022-08-03T05:05:11.882Z,18.52
2022-08-03T05:06:11.880Z,18.58
2022-08-03T05:07:12.445Z,18.61
2022-08-03T05:08:11.840Z,18.67
2022-08-03T05:09:11.840Z,18.68
2022-08-03T05:10:15.751Z,18.70
2022-08-03T05:11:11.799Z,18.76
2022-08-03T05:12:11.800Z,18.82
2022-08-03T05:13:12.019Z,18.86
2022-08-03T05:14:11.769Z,18.87
2022-08-03T05:15:11.755Z,18.92
2022-08-03T05:16:11.816Z,18.94
2022-08-03T05:17:11.731Z,18.95
2022-08-03T05:18:14.124Z,18.97
2022-08-03T05:19:11.683Z,18.97
2022-08-03T05:20:11.778Z,18.97
2022-08-03T05:21:11.755Z,18.97
2022-08-03T05:22:11.894Z,18.97
2022-08-03T05:23:11.998Z,18.95
2022-08-03T05:24:11.882Z,18.95
2022-08-03T05:25:17.312Z,18.97
2022-08-03T05:26:11.735Z,18.98
2022-08-03T05:27:11.644Z,18.97
2022-08-03T05:28:11.722Z,18.98
2022-08-03T05:29:11.737Z,18.97
2022-08-03T05:30:27.306Z,18.98
2022-08-03T05:31:11.604Z,18.98
2022-08-03T05:32:11.615Z,18.98
2022-08-03T05:33:11.596Z,18.99
2022-08-03T05:34:11.697Z,18.99
2022-08-03T05:36:02.258Z,19.01
2022-08-03T05:36:11.567Z,19.05
2022-08-03T05:37:11.565Z,19.10
2022-08-03T05:38:11.545Z,19.13
2022-08-03T05:39:11.545Z,19.20
2022-08-03T05:40:11.554Z,19.24
2022-08-03T05:41:23.567Z,19.31
2022-08-03T05:42:11.474Z,19.36
2022-08-03T05:43:11.471Z,19.39
2022-08-03T05:44:11.462Z,19.46
2022-08-03T05:45:11.425Z,19.48
2022-08-03T05:46:13.073Z,19.54
2022-08-03T05:47:11.424Z,19.61
2022-08-03T05:48:11.467Z,19.70
2022-08-03T05:49:11.438Z,19.80
2022-08-03T05:50:11.423Z,19.90
2022-08-03T05:51:12.168Z,19.97
2022-08-03T05:52:18.671Z,20.03
2022-08-03T05:53:11.386Z,20.09
2022-08-03T05:54:11.360Z,20.15
2022-08-03T05:55:11.386Z,20.20
2022-08-03T05:56:15.368Z,20.23
2022-08-03T05:57:11.306Z,20.30
2022-08-03T05:58:11.353Z,20.31
2022-08-03T05:59:36.646Z,20.34
2022-08-03T06:00:11.347Z,20.38
2022-08-03T06:01:11.353Z,20.42
2022-08-03T06:02:11.309Z,20.46
2022-08-03T06:03:11.267Z,20.47
2022-08-03T06:04:11.346Z,20.51
2022-08-03T06:05:11.226Z,20.53
2022-08-03T06:06:11.265Z,20.58
2022-08-03T06:07:11.223Z,20.64
2022-08-03T06:08:11.272Z,20.66
2022-08-03T06:09:11.230Z,20.71
2022-08-03T06:10:35.738Z,20.76
2022-08-03T06:11:11.187Z,20.79
2022-08-03T06:12:14.175Z,20.83
2022-08-03T06:13:11.146Z,20.89
2022-08-03T06:14:11.218Z,20.96
2022-08-03T06:15:11.289Z,21.04
2022-08-03T06:16:11.460Z,21.11
2022-08-03T06:17:11.149Z,21.16
2022-08-03T06:18:11.097Z,21.20
2022-08-03T06:19:11.118Z,21.23
2022-08-03T06:20:11.185Z,21.27
2022-08-03T06:21:15.629Z,21.27
2022-08-03T06:22:11.112Z,21.32
2022-08-03T06:23:16.284Z,21.35
2022-08-03T06:24:11.076Z,21.38
2022-08-03T06:25:12.946Z,21.46
2022-08-03T06:26:12.109Z,21.50
2022-08-03T06:27:11.042Z,21.54
2022-08-03T06:28:18.993Z,21.57
2022-08-03T06:29:11.231Z,21.61
2022-08-03T06:30:11.001Z,21.61
2022-08-03T06:31:10.990Z,21.63
2022-08-03T06:32:10.996Z,21.67
2022-08-03T06:33:10.988Z,21.74
2022-08-03T06:34:33.480Z,21.76
2022-08-03T06:35:10.952Z,21.83
2022-08-03T06:36:10.958Z,21.90
2022-08-03T06:37:10.997Z,21.95
2022-08-03T06:38:10.952Z,21.99
2022-08-03T06:39:10.950Z,22.04
2022-08-03T06:40:11.066Z,22.10
2022-08-03T06:41:10.905Z,22.13
2022-08-03T06:42:11.009Z,22.17
2022-08-03T06:43:12.553Z,22.20
2022-08-03T06:44:10.876Z,22.25
2022-08-03T06:45:10.869Z,22.28
2022-08-03T06:46:10.942Z,22.29
2022-08-03T06:47:10.874Z,22.31
2022-08-03T06:48:10.866Z,22.34
2022-08-03T06:49:10.898Z,22.39
2022-08-03T06:50:16.539Z,22.47
2022-08-03T06:51:10.789Z,22.54
2022-08-03T06:52:10.826Z,22.59
2022-08-03T06:53:15.608Z,22.60
2022-08-03T06:54:10.817Z,22.65
2022-08-03T06:55:10.796Z,22.69
2022-08-03T06:56:10.787Z,22.72
2022-08-03T06:57:10.746Z,22.75
2022-08-03T06:58:10.844Z,22.78
2022-08-03T07:00:07.972Z,22.80
2022-08-03T07:00:16.396Z,22.83
2022-08-03T07:01:11.089Z,22.86
2022-08-03T07:02:11.040Z,22.92
2022-08-03T07:03:10.654Z,23.01
2022-08-03T07:04:10.775Z,23.05
2022-08-03T07:05:10.692Z,23.09
2022-08-03T07:06:10.879Z,23.12
2022-08-03T07:07:10.613Z,23.14
2022-08-03T07:08:10.961Z,23.15
2022-08-03T07:09:10.591Z,23.17
2022-08-03T07:10:10.626Z,23.22
2022-08-03T07:11:10.591Z,23.22
2022-08-03T07:12:10.708Z,23.24
2022-08-03T07:13:10.584Z,23.26
2022-08-03T07:14:10.706Z,23.24
2022-08-03T07:15:20.500Z,23.24
2022-08-03T07:16:10.591Z,23.26
2022-08-03T07:17:11.738Z,23.27
2022-08-03T07:18:10.551Z,23.27
2022-08-03T07:19:10.544Z,23.31
2022-08-03T07:20:10.511Z,23.32
2022-08-03T07:21:10.663Z,23.38
2022-08-03T07:22:10.522Z,23.42
2022-08-03T07:23:10.467Z,23.43
2022-08-03T07:24:10.711Z,23.45
2022-08-03T07:25:10.471Z,23.50
2022-08-03T07:26:10.469Z,23.52
2022-08-03T07:27:10.430Z,23.57
2022-08-03T07:28:10.479Z,23.61
2022-08-03T07:29:14.829Z,23.67
2022-08-03T07:30:10.416Z,23.77
2022-08-03T07:31:10.372Z,23.83
2022-08-03T07:32:10.647Z,23.92
2022-08-03T07:33:10.397Z,24.00
2022-08-03T07:34:10.394Z,24.05
2022-08-03T07:35:22.734Z,24.12
2022-08-03T07:36:10.357Z,24.19
2022-08-03T07:37:10.323Z,24.20
2022-08-03T07:38:10.356Z,24.22
2022-08-03T07:39:17.692Z,24.23
2022-08-03T07:40:10.395Z,24.23
2022-08-03T07:41:10.319Z,24.26
2022-08-03T07:42:10.379Z,24.29
2022-08-03T07:43:10.303Z,24.26
2022-08-03T07:44:10.551Z,24.27
2022-08-03T07:45:10.243Z,24.31
2022-08-03T07:46:10.234Z,24.32
2022-08-03T07:47:10.231Z,24.37
2022-08-03T07:48:12.615Z,24.38
2022-08-03T07:49:10.266Z,24.41
2022-08-03T07:50:10.237Z,24.42
2022-08-03T07:51:10.191Z,24.45
2022-08-03T07:52:10.298Z,24.47
2022-08-03T07:53:10.312Z,24.52
2022-08-03T07:54:10.233Z,24.56
2022-08-03T07:55:10.161Z,24.61
2022-08-03T07:56:11.556Z,24.67
2022-08-03T07:57:10.153Z,24.71
2022-08-03T07:58:10.361Z,24.77
2022-08-03T07:59:10.240Z,24.85
2022-08-03T08:00:10.114Z,24.91
2022-08-03T08:01:10.147Z,24.97
2022-08-03T08:02:10.072Z,25.00
2022-08-03T08:03:10.328Z,25.07
2022-08-03T08:04:10.112Z,25.09
2022-08-03T08:05:10.102Z,25.12
2022-08-03T08:06:10.191Z,25.17
2022-08-03T08:07:10.036Z,25.24
2022-08-03T08:08:10.040Z,25.31
2022-08-03T08:09:09.976Z,25.37
2022-08-03T08:10:10.421Z,25.46
2022-08-03T08:11:10.121Z,25.53
2022-08-03T08:12:15.318Z,25.61
2022-08-03T08:13:09.976Z,25.68
2022-08-03T08:14:10.005Z,25.72
2022-08-03T08:15:10.020Z,25.79
2022-08-03T08:16:10.117Z,25.79
2022-08-03T08:17:09.977Z,25.82
2022-08-03T08:18:09.941Z,25.83
2022-08-03T08:19:10.126Z,25.87
2022-08-03T08:20:09.994Z,25.98
2022-08-03T08:21:09.934Z,26.08
2022-08-03T08:22:09.908Z,26.20
2022-08-03T08:23:37.645Z,26.24
2022-08-03T08:24:13.322Z,26.29
2022-08-03T08:25:09.892Z,26.35
2022-08-03T08:26:09.965Z,26.43
2022-08-03T08:27:09.886Z,26.49
2022-08-03T08:28:30.278Z,26.55
2022-08-03T08:29:09.851Z,26.61
2022-08-03T08:30:12.279Z,26.62
2022-08-03T08:31:09.807Z,26.65
2022-08-03T08:32:09.849Z,26.67
2022-08-03T08:33:23.536Z,26.72
2022-08-03T08:34:10.050Z,26.74
2022-08-03T08:35:09.957Z,26.77
2022-08-03T08:36:14.755Z,26.77
2022-08-03T08:37:09.711Z,26.80
2022-08-03T08:38:09.826Z,26.86
2022-08-03T08:39:09.799Z,26.91
2022-08-03T08:40:09.758Z,26.96
2022-08-03T08:41:09.701Z,27.04
2022-08-03T08:42:09.898Z,27.10
2022-08-03T08:43:09.784Z,27.19
2022-08-03T08:44:09.928Z,27.28
2022-08-03T08:45:09.664Z,27.35
2022-08-03T08:46:09.890Z,27.42
2022-08-03T08:47:09.860Z,27.47
2022-08-03T08:48:09.829Z,27.48
2022-08-03T08:49:09.750Z,27.47
2022-08-03T08:50:27.124Z,27.53
2022-08-03T08:51:09.914Z,27.64
2022-08-03T08:52:24.930Z,27.79
2022-08-03T08:53:11.657Z,27.91
2022-08-03T08:54:09.767Z,28.01
2022-08-03T08:55:09.513Z,28.11
2022-08-03T08:56:09.516Z,28.14
2022-08-03T08:57:26.862Z,28.19
2022-08-03T08:58:09.551Z,28.25
2022-08-03T08:59:09.519Z,28.23
2022-08-03T09:00:09.677Z,28.22
2022-08-03T09:01:09.785Z,28.26
2022-08-03T09:02:09.447Z,28.26
2022-08-03T09:03:09.549Z,28.31
2022-08-03T09:04:09.654Z,28.36
2022-08-03T09:05:09.459Z,28.44
2022-08-03T09:06:09.460Z,28.51
2022-08-03T09:07:29.043Z,28.58
2022-08-03T09:08:09.511Z,28.68
2022-08-03T09:09:09.492Z,28.78
2022-08-03T09:10:13.014Z,28.85
2022-08-03T09:11:09.450Z,28.91
2022-08-03T09:12:37.487Z,28.97
2022-08-03T09:13:09.575Z,29.06
2022-08-03T09:14:09.369Z,29.00
2022-08-03T09:15:17.033Z,29.04
2022-08-03T09:16:09.459Z,29.13
2022-08-03T09:17:16.995Z,29.20
2022-08-03T09:18:09.415Z,29.37
2022-08-03T09:19:09.412Z,29.50
2022-08-03T09:20:09.336Z,29.68
2022-08-03T09:21:29.659Z,29.87
2022-08-03T09:22:09.344Z,30.07
2022-08-03T09:23:58.931Z,30.24
2022-08-03T09:24:16.695Z,30.30
2022-08-03T09:25:23.759Z,30.37
2022-08-03T09:26:09.374Z,30.47
2022-08-03T09:27:09.223Z,30.62
2022-08-03T09:28:10.350Z,30.74
2022-08-03T09:29:14.365Z,30.93
2022-08-03T09:30:33.284Z,30.81
2022-08-03T09:31:09.417Z,30.87
2022-08-03T09:32:09.303Z,30.98
2022-08-03T09:33:09.231Z,31.12
2022-08-03T09:34:09.191Z,31.23
2022-08-03T09:35:09.700Z,31.36
2022-08-03T09:36:09.276Z,31.45
2022-08-03T09:37:09.187Z,31.53
2022-08-03T09:38:13.674Z,31.55
2022-08-03T09:39:09.104Z,31.61
2022-08-03T09:40:09.131Z,31.55
2022-08-03T09:41:09.130Z,31.70
2022-08-03T09:42:09.123Z,31.70
2022-08-03T09:43:09.094Z,31.67
2022-08-03T09:44:09.051Z,31.77
2022-08-03T09:45:09.075Z,31.88
2022-08-03T09:46:09.089Z,31.95
2022-08-03T09:47:09.221Z,32.13
2022-08-03T09:48:09.077Z,32.32
2022-08-03T09:49:11.740Z,32.35
2022-08-03T09:50:09.036Z,32.35
2022-08-03T09:51:14.341Z,32.43
2022-08-03T09:52:38.921Z,32.57
2022-08-03T09:53:08.993Z,32.57
2022-08-03T09:54:17.611Z,32.52
2022-08-03T09:56:32.633Z,32.44
2022-08-03T09:56:41.435Z,32.24
2022-08-03T09:57:09.038Z,32.15
2022-08-03T09:58:08.974Z,32.24
2022-08-03T09:59:09.018Z,32.36
2022-08-03T10:00:09.006Z,32.49
2022-08-03T10:01:23.974Z,32.66
2022-08-03T10:02:08.919Z,32.88
2022-08-03T10:03:09.022Z,32.96
2022-08-03T10:04:09.205Z,33.11
2022-08-03T10:05:08.936Z,33.19
2022-08-03T10:06:09.073Z,33.27
2022-08-03T10:07:09.280Z,33.23
2022-08-03T10:08:08.883Z,33.26
2022-08-03T10:09:09.615Z,32.95
2022-08-03T10:10:30.651Z,32.77
2022-08-03T10:11:08.891Z,32.48
2022-08-03T10:12:08.818Z,32.33
2022-08-03T10:13:09.515Z,32.29
2022-08-03T10:14:08.821Z,32.35
2022-08-03T10:15:09.042Z,32.59
2022-08-03T10:16:28.922Z,32.92
2022-08-03T10:17:08.776Z,33.27
2022-08-03T10:18:08.805Z,33.60
2022-08-03T10:19:08.851Z,33.92
2022-08-03T10:20:08.796Z,33.92
2022-08-03T10:21:08.894Z,34.05
2022-08-03T10:22:08.764Z,34.05
2022-08-03T10:23:08.749Z,34.11
2022-08-03T10:24:08.702Z,34.13
2022-08-03T10:25:08.736Z,34.08
2022-08-03T10:26:08.703Z,34.22
2022-08-03T10:27:08.740Z,34.36
2022-08-03T10:28:08.729Z,34.48
2022-08-03T10:29:12.364Z,34.36
2022-08-03T10:30:08.638Z,34.31
2022-08-03T10:31:08.645Z,34.23
2022-08-03T10:32:08.616Z,34.00
2022-08-03T10:33:12.312Z,34.08
2022-08-03T10:34:09.794Z,34.17
2022-08-03T10:35:20.166Z,34.32
2022-08-03T10:36:08.627Z,34.42
2022-08-03T10:37:08.735Z,34.27
2022-08-03T10:38:08.672Z,34.36
2022-08-03T10:39:15.986Z,34.39
2022-08-03T10:40:08.846Z,34.41
2022-08-03T10:41:08.570Z,34.63
2022-08-03T10:42:14.433Z,34.95
2022-08-03T10:43:08.558Z,35.28
2022-08-03T10:44:08.546Z,35.57
2022-08-03T10:45:08.530Z,35.84
2022-08-03T10:46:08.690Z,36.08
2022-08-03T10:47:08.716Z,36.31
2022-08-03T10:48:08.727Z,36.45
2022-08-03T10:49:08.546Z,36.54
2022-08-03T10:50:08.811Z,36.36
2022-08-03T10:51:08.458Z,36.20
2022-08-03T10:52:31.791Z,36.06
2022-08-03T10:53:08.462Z,35.86
2022-08-03T10:54:08.476Z,35.66
2022-08-03T10:55:10.748Z,35.54
2022-08-03T10:56:08.442Z,35.29
2022-08-03T10:57:23.085Z,35.28
2022-08-03T10:58:11.263Z,35.44
2022-08-03T10:59:08.776Z,35.44
2022-08-03T11:00:08.422Z,35.40
2022-08-03T11:01:08.535Z,35.39
2022-08-03T11:02:08.409Z,35.26
2022-08-03T11:03:08.381Z,35.39
2022-08-03T11:04:12.886Z,35.36
2022-08-03T11:05:08.419Z,35.45
2022-08-03T11:06:08.449Z,35.58
2022-08-03T11:07:08.396Z,35.81
2022-08-03T11:08:08.767Z,35.93
2022-08-03T11:09:08.377Z,36.21
2022-08-03T11:10:10.576Z,36.33
2022-08-03T11:11:08.319Z,36.39
2022-08-03T11:12:08.331Z,36.46
2022-08-03T11:13:08.397Z,36.41
2022-08-03T11:14:08.335Z,36.41
2022-08-03T11:15:08.392Z,36.33
2022-08-03T11:16:12.469Z,36.33
2022-08-03T11:17:14.397Z,36.48
2022-08-03T11:18:08.328Z,36.61
2022-08-03T11:19:08.301Z,36.75
2022-08-03T11:20:08.274Z,36.80
2022-08-03T11:21:08.492Z,36.86
2022-08-03T11:22:08.355Z,36.94
2022-08-03T11:23:08.248Z,36.82
2022-08-03T11:24:08.269Z,36.86
2022-08-03T11:25:08.248Z,36.82
2022-08-03T11:26:08.219Z,36.80
2022-08-03T11:27:08.482Z,36.70
2022-08-03T11:28:08.291Z,36.61
2022-08-03T11:29:08.252Z,36.60
2022-08-03T11:30:08.173Z,36.63
2022-08-03T11:31:08.173Z,36.58
2022-08-03T11:32:08.171Z,36.54
2022-08-03T11:33:08.344Z,36.64
2022-08-03T11:34:08.657Z,36.61
2022-08-03T11:35:08.168Z,36.61
2022-08-03T11:36:08.289Z,36.65
2022-08-03T11:37:08.140Z,36.60
2022-08-03T11:38:08.145Z,36.63
2022-08-03T11:39:08.215Z,36.63
2022-08-03T11:40:08.529Z,36.61
2022-08-03T11:41:08.261Z,36.58
2022-08-03T11:42:08.224Z,36.60
2022-08-03T11:43:08.093Z,36.63
2022-08-03T11:44:08.134Z,36.77
2022-08-03T11:45:08.256Z,36.97
2022-08-03T11:46:08.619Z,37.24
2022-08-03T11:47:08.065Z,37.50
2022-08-03T11:48:08.214Z,37.64
2022-08-03T11:49:10.787Z,37.67
2022-08-03T11:50:08.123Z,37.55
2022-08-03T11:51:08.092Z,36.67
2022-08-03T11:52:08.125Z,36.19
2022-08-03T11:53:08.299Z,35.91
2022-08-03T11:54:08.232Z,35.85
2022-08-03T11:55:08.100Z,35.95
2022-08-03T11:56:12.520Z,36.17
2022-08-03T11:57:08.220Z,36.31
2022-08-03T11:59:01.177Z,36.41
2022-08-03T11:59:24.475Z,36.49
2022-08-03T12:00:08.244Z,36.41
2022-08-03T12:01:07.962Z,36.31
2022-08-03T12:02:08.023Z,36.06
2022-08-03T12:03:08.158Z,35.74
2022-08-03T12:04:07.991Z,35.64
2022-08-03T12:05:07.934Z,35.60
2022-08-03T12:06:08.021Z,35.51
2022-08-03T12:07:07.933Z,35.47
2022-08-03T12:08:08.089Z,35.35
2022-08-03T12:09:08.138Z,35.20
2022-08-03T12:10:08.223Z,34.92
2022-08-03T12:11:07.888Z,34.83
2022-08-03T12:12:08.267Z,34.69
2022-08-03T12:13:56.586Z,34.66
2022-08-03T12:14:52.490Z,34.60
2022-08-03T12:15:07.931Z,34.57
2022-08-03T12:16:08.332Z,34.54
2022-08-03T12:17:07.895Z,34.48
2022-08-03T12:18:08.183Z,34.53
2022-08-03T12:19:07.850Z,34.58
2022-08-03T12:20:07.966Z,34.63
2022-08-03T12:21:08.045Z,34.57
2022-08-03T12:22:07.873Z,34.53
2022-08-03T12:23:07.843Z,34.51
2022-08-03T12:24:07.801Z,34.46
2022-08-03T12:25:07.792Z,34.50
2022-08-03T12:26:07.794Z,34.46
2022-08-03T12:27:07.808Z,34.29
2022-08-03T12:28:28.411Z,34.11
2022-08-03T12:29:07.823Z,34.07
2022-08-03T12:30:08.139Z,33.98
2022-08-03T12:31:08.154Z,33.90
2022-08-03T12:32:08.072Z,33.86
2022-08-03T12:33:07.747Z,33.64
2022-08-03T12:34:07.896Z,33.55
2022-08-03T12:35:07.712Z,33.57
2022-08-03T12:36:07.820Z,33.51
2022-08-03T12:37:21.795Z,33.61
2022-08-03T12:38:08.095Z,33.83
2022-08-03T12:39:07.775Z,34.00
2022-08-03T12:40:10.556Z,34.23
2022-08-03T12:41:07.700Z,34.48
2022-08-03T12:42:07.602Z,34.74
2022-08-03T12:43:07.803Z,34.94
2022-08-03T12:44:08.304Z,35.14
2022-08-03T12:45:08.311Z,35.35
2022-08-03T12:46:08.736Z,35.36
2022-08-03T12:47:07.736Z,35.48
2022-08-03T12:48:07.715Z,35.37
2022-08-03T12:49:08.852Z,35.28
2022-08-03T12:50:08.469Z,35.36
2022-08-03T12:51:10.647Z,35.48
2022-08-03T12:52:08.680Z,35.55